Disclaimer

Please do not use the information listed here in-flight or in-navigation, as they are not provided to us by the airports but are provided by volunteers, so they might be outdated.

Search


Regions


Airport information page

Radio informations:
MANDATORY FREQ - 122.1 MHz

Airport informations:
Latitude: 67° 24' 27.00" N
Longitude: 134° 51' 38.00" W
Elevation: 116 feet - 35 meters
Operating hours: N/A
Operating agency: Civil government, landing fees and diplomatic clearance may be required
Timezone: Second Sunday in March at 0200 to first Sunday in November at 0200 local time (Exception Arizona and that portion of Indiana in the Eastern Time Zone)
Fuel: N/A

Runway information:
11/29 - 3500 x 100 feet< - >1067 x 30 meters

Recent METARs:
CZFM 152100Z 15003KT 110V170 15SM -SN BKN032 M27/M31 A3063 RMK SC7 SLP379
CZFM 152200Z 17003KT 120V190 15SM -SN BKN120 M27/M30 A3062 RMK AC7 SLP378
CZFM 152200Z 17003KT 120V190 15SM -SN BKN120 M27/M30 A3062 RMK AC7 SLP378

Airport on the map: